sensor_id;sensor_type;location;lat;lon;timestamp;P1;durP1;ratioP1;P2;durP2;ratioP2
14778;SDS011;7481;53.750;10.570;2023-05-27T00:01:19;6.20;;;2.90;;
14778;SDS011;7481;53.750;10.570;2023-05-27T00:04:07;8.50;;;3.40;;
14778;SDS011;7481;53.750;10.570;2023-05-27T00:06:54;8.60;;;2.77;;
14778;SDS011;7481;53.750;10.570;2023-05-27T00:09:42;7.10;;;3.07;;
14778;SDS011;7481;53.750;10.570;2023-05-27T00:12:29;6.93;;;3.00;;
14778;SDS011;7481;53.750;10.570;2023-05-27T00:15:17;9.13;;;2.60;;
14778;SDS011;7481;53.750;10.570;2023-05-27T00:18:04;7.57;;;3.27;;
14778;SDS011;7481;53.750;10.570;2023-05-27T00:20:52;7.33;;;3.50;;
14778;SDS011;7481;53.750;10.570;2023-05-27T00:23:44;6.60;;;2.97;;
14778;SDS011;7481;53.750;10.570;2023-05-27T00:26:32;7.97;;;3.10;;
14778;SDS011;7481;53.750;10.570;2023-05-27T00:29:19;12.13;;;3.90;;
14778;SDS011;7481;53.750;10.570;2023-05-27T00:32:07;6.73;;;2.80;;
14778;SDS011;7481;53.750;10.570;2023-05-27T00:34:54;8.83;;;2.93;;
14778;SDS011;7481;53.750;10.570;2023-05-27T00:37:42;10.53;;;4.00;;
14778;SDS011;7481;53.750;10.570;2023-05-27T00:40:29;8.07;;;2.90;;
14778;SDS011;7481;53.750;10.570;2023-05-27T00:43:17;7.27;;;3.60;;
14778;SDS011;7481;53.750;10.570;2023-05-27T00:46:04;8.80;;;2.90;;
14778;SDS011;7481;53.750;10.570;2023-05-27T00:48:52;7.37;;;2.80;;
14778;SDS011;7481;53.750;10.570;2023-05-27T00:51:39;7.20;;;2.73;;
14778;SDS011;7481;53.750;10.570;2023-05-27T00:54:27;6.73;;;3.03;;
14778;SDS011;7481;53.750;10.570;2023-05-27T00:57:15;6.33;;;3.23;;
14778;SDS011;7481;53.750;10.570;2023-05-27T01:00:02;9.20;;;3.30;;
14778;SDS011;7481;53.750;10.570;2023-05-27T01:02:56;8.97;;;2.90;;
14778;SDS011;7481;53.750;10.570;2023-05-27T01:05:44;7.00;;;2.87;;
14778;SDS011;7481;53.750;10.570;2023-05-27T01:08:34;7.63;;;3.10;;
14778;SDS011;7481;53.750;10.570;2023-05-27T01:11:26;8.60;;;3.50;;
14778;SDS011;7481;53.750;10.570;2023-05-27T01:14:15;7.17;;;2.97;;
14778;SDS011;7481;53.750;10.570;2023-05-27T01:17:05;10.67;;;3.10;;
14778;SDS011;7481;53.750;10.570;2023-05-27T01:19:53;7.23;;;3.53;;
14778;SDS011;7481;53.750;10.570;2023-05-27T01:22:44;8.43;;;3.07;;
14778;SDS011;7481;53.750;10.570;2023-05-27T01:25:31;9.73;;;2.87;;
14778;SDS011;7481;53.750;10.570;2023-05-27T01:28:18;8.37;;;2.67;;
14778;SDS011;7481;53.750;10.570;2023-05-27T01:31:10;10.30;;;3.17;;
14778;SDS011;7481;53.750;10.570;2023-05-27T01:34:00;6.87;;;3.03;;
14778;SDS011;7481;53.750;10.570;2023-05-27T01:36:49;8.30;;;3.20;;
14778;SDS011;7481;53.750;10.570;2023-05-27T01:39:38;7.10;;;3.17;;
14778;SDS011;7481;53.750;10.570;2023-05-27T01:42:26;10.00;;;2.77;;
14778;SDS011;7481;53.750;10.570;2023-05-27T01:45:14;4.83;;;2.80;;
14778;SDS011;7481;53.750;10.570;2023-05-27T01:48:01;5.57;;;2.73;;
14778;SDS011;7481;53.750;10.570;2023-05-27T01:50:49;5.73;;;2.83;;
14778;SDS011;7481;53.750;10.570;2023-05-27T01:53:36;8.57;;;3.90;;
14778;SDS011;7481;53.750;10.570;2023-05-27T01:56:24;7.27;;;3.20;;
14778;SDS011;7481;53.750;10.570;2023-05-27T01:59:11;7.23;;;3.40;;
14778;SDS011;7481;53.750;10.570;2023-05-27T02:01:59;8.23;;;2.80;;
14778;SDS011;7481;53.750;10.570;2023-05-27T02:04:47;6.23;;;2.70;;
14778;SDS011;7481;53.750;10.570;2023-05-27T02:07:34;5.57;;;2.53;;
14778;SDS011;7481;53.750;10.570;2023-05-27T02:10:22;7.53;;;2.70;;
14778;SDS011;7481;53.750;10.570;2023-05-27T02:13:10;7.60;;;3.10;;
14778;SDS011;7481;53.750;10.570;2023-05-27T02:15:57;5.93;;;2.93;;
14778;SDS011;7481;53.750;10.570;2023-05-27T02:18:44;6.43;;;2.73;;
14778;SDS011;7481;53.750;10.570;2023-05-27T02:21:32;5.93;;;2.70;;
14778;SDS011;7481;53.750;10.570;2023-05-27T02:24:19;7.93;;;3.00;;
14778;SDS011;7481;53.750;10.570;2023-05-27T02:27:07;10.50;;;3.93;;
14778;SDS011;7481;53.750;10.570;2023-05-27T02:29:54;8.77;;;2.90;;
14778;SDS011;7481;53.750;10.570;2023-05-27T02:32:41;7.70;;;3.67;;
14778;SDS011;7481;53.750;10.570;2023-05-27T02:35:30;8.80;;;3.23;;
14778;SDS011;7481;53.750;10.570;2023-05-27T02:38:17;6.70;;;2.87;;
14778;SDS011;7481;53.750;10.570;2023-05-27T02:41:05;6.30;;;3.13;;
14778;SDS011;7481;53.750;10.570;2023-05-27T02:43:52;6.60;;;3.13;;
14778;SDS011;7481;53.750;10.570;2023-05-27T02:46:39;8.80;;;2.90;;
14778;SDS011;7481;53.750;10.570;2023-05-27T02:49:27;5.47;;;3.27;;
14778;SDS011;7481;53.750;10.570;2023-05-27T02:52:14;9.30;;;3.23;;
14778;SDS011;7481;53.750;10.570;2023-05-27T02:55:02;7.27;;;2.73;;
14778;SDS011;7481;53.750;10.570;2023-05-27T02:57:49;8.07;;;3.00;;
14778;SDS011;7481;53.750;10.570;2023-05-27T03:00:37;8.23;;;3.37;;
14778;SDS011;7481;53.750;10.570;2023-05-27T03:03:24;5.90;;;2.63;;
14778;SDS011;7481;53.750;10.570;2023-05-27T03:06:12;8.73;;;4.20;;
14778;SDS011;7481;53.750;10.570;2023-05-27T03:08:59;7.13;;;4.63;;
14778;SDS011;7481;53.750;10.570;2023-05-27T03:11:47;12.13;;;8.00;;
14778;SDS011;7481;53.750;10.570;2023-05-27T03:14:34;7.37;;;4.77;;
14778;SDS011;7481;53.750;10.570;2023-05-27T03:17:22;10.77;;;4.77;;
14778;SDS011;7481;53.750;10.570;2023-05-27T03:20:09;6.07;;;4.00;;
14778;SDS011;7481;53.750;10.570;2023-05-27T03:22:57;7.97;;;4.10;;
14778;SDS011;7481;53.750;10.570;2023-05-27T03:25:44;7.70;;;3.77;;
14778;SDS011;7481;53.750;10.570;2023-05-27T03:28:32;7.40;;;3.40;;
14778;SDS011;7481;53.750;10.570;2023-05-27T03:31:20;13.47;;;5.30;;
14778;SDS011;7481;53.750;10.570;2023-05-27T03:34:07;12.07;;;4.47;;
14778;SDS011;7481;53.750;10.570;2023-05-27T03:36:55;32.60;;;11.13;;
14778;SDS011;7481;53.750;10.570;2023-05-27T03:39:42;47.80;;;16.40;;
14778;SDS011;7481;53.750;10.570;2023-05-27T03:42:29;77.33;;;27.23;;
14778;SDS011;7481;53.750;10.570;2023-05-27T03:45:17;128.90;;;43.13;;
14778;SDS011;7481;53.750;10.570;2023-05-27T03:48:04;74.03;;;26.20;;
14778;SDS011;7481;53.750;10.570;2023-05-27T03:50:52;35.03;;;13.60;;
14778;SDS011;7481;53.750;10.570;2023-05-27T03:53:39;66.20;;;24.00;;
14778;SDS011;7481;53.750;10.570;2023-05-27T03:56:27;21.93;;;9.07;;
14778;SDS011;7481;53.750;10.570;2023-05-27T03:59:14;13.60;;;5.13;;
14778;SDS011;7481;53.750;10.570;2023-05-27T04:02:01;21.97;;;7.07;;
14778;SDS011;7481;53.750;10.570;2023-05-27T04:04:49;19.50;;;9.23;;
14778;SDS011;7481;53.750;10.570;2023-05-27T04:07:37;13.00;;;5.70;;
14778;SDS011;7481;53.750;10.570;2023-05-27T04:10:24;7.73;;;3.37;;
14778;SDS011;7481;53.750;10.570;2023-05-27T04:13:12;16.83;;;6.20;;
14778;SDS011;7481;53.750;10.570;2023-05-27T04:15:59;13.27;;;5.10;;
14778;SDS011;7481;53.750;10.570;2023-05-27T04:18:47;13.87;;;4.90;;
14778;SDS011;7481;53.750;10.570;2023-05-27T04:21:38;13.07;;;5.10;;
14778;SDS011;7481;53.750;10.570;2023-05-27T04:24:25;9.07;;;4.23;;
14778;SDS011;7481;53.750;10.570;2023-05-27T04:27:12;9.80;;;4.73;;
14778;SDS011;7481;53.750;10.570;2023-05-27T04:30:06;9.50;;;4.43;;
14778;SDS011;7481;53.750;10.570;2023-05-27T04:32:55;9.20;;;4.00;;
14778;SDS011;7481;53.750;10.570;2023-05-27T04:35:43;9.43;;;3.80;;
14778;SDS011;7481;53.750;10.570;2023-05-27T04:38:30;7.93;;;3.27;;
14778;SDS011;7481;53.750;10.570;2023-05-27T04:41:18;10.40;;;3.03;;
14778;SDS011;7481;53.750;10.570;2023-05-27T04:44:14;9.93;;;3.50;;
14778;SDS011;7481;53.750;10.570;2023-05-27T04:47:03;10.60;;;3.80;;
14778;SDS011;7481;53.750;10.570;2023-05-27T04:49:51;8.70;;;3.10;;
14778;SDS011;7481;53.750;10.570;2023-05-27T04:52:39;7.27;;;3.30;;
14778;SDS011;7481;53.750;10.570;2023-05-27T04:55:28;12.03;;;3.30;;
14778;SDS011;7481;53.750;10.570;2023-05-27T04:58:16;9.40;;;3.43;;
14778;SDS011;7481;53.750;10.570;2023-05-27T05:01:04;9.87;;;3.17;;
14778;SDS011;7481;53.750;10.570;2023-05-27T05:03:52;7.67;;;3.00;;
14778;SDS011;7481;53.750;10.570;2023-05-27T05:06:57;6.60;;;3.17;;
14778;SDS011;7481;53.750;10.570;2023-05-27T05:09:44;10.00;;;3.50;;
14778;SDS011;7481;53.750;10.570;2023-05-27T05:12:32;7.47;;;2.90;;
14778;SDS011;7481;53.750;10.570;2023-05-27T05:15:19;8.53;;;3.17;;
14778;SDS011;7481;53.750;10.570;2023-05-27T05:18:07;7.10;;;3.13;;
14778;SDS011;7481;53.750;10.570;2023-05-27T05:20:54;8.37;;;3.20;;
14778;SDS011;7481;53.750;10.570;2023-05-27T05:23:42;4.80;;;2.90;;
14778;SDS011;7481;53.750;10.570;2023-05-27T05:26:29;9.20;;;3.60;;
14778;SDS011;7481;53.750;10.570;2023-05-27T05:29:17;10.73;;;3.70;;
14778;SDS011;7481;53.750;10.570;2023-05-27T05:32:04;6.33;;;2.93;;
14778;SDS011;7481;53.750;10.570;2023-05-27T05:34:52;8.93;;;3.20;;
14778;SDS011;7481;53.750;10.570;2023-05-27T05:37:39;7.77;;;3.20;;
14778;SDS011;7481;53.750;10.570;2023-05-27T05:40:27;9.43;;;3.17;;
14778;SDS011;7481;53.750;10.570;2023-05-27T05:43:14;10.17;;;3.23;;
14778;SDS011;7481;53.750;10.570;2023-05-27T05:46:02;7.30;;;2.83;;
14778;SDS011;7481;53.750;10.570;2023-05-27T05:48:51;9.13;;;3.27;;
14778;SDS011;7481;53.750;10.570;2023-05-27T05:51:40;9.43;;;3.30;;
14778;SDS011;7481;53.750;10.570;2023-05-27T05:54:27;6.40;;;3.28;;
14778;SDS011;7481;53.750;10.570;2023-05-27T05:57:15;9.70;;;3.20;;
14778;SDS011;7481;53.750;10.570;2023-05-27T06:00:02;7.85;;;3.40;;
14778;SDS011;7481;53.750;10.570;2023-05-27T06:02:50;6.35;;;3.03;;
14778;SDS011;7481;53.750;10.570;2023-05-27T06:05:38;10.40;;;3.35;;
14778;SDS011;7481;53.750;10.570;2023-05-27T06:08:25;8.00;;;3.30;;
14778;SDS011;7481;53.750;10.570;2023-05-27T06:11:12;10.40;;;3.58;;
14778;SDS011;7481;53.750;10.570;2023-05-27T06:14:00;8.07;;;3.08;;
14778;SDS011;7481;53.750;10.570;2023-05-27T06:16:47;7.95;;;3.13;;
14778;SDS011;7481;53.750;10.570;2023-05-27T06:19:35;7.88;;;3.40;;
14778;SDS011;7481;53.750;10.570;2023-05-27T06:22:22;11.50;;;3.22;;
14778;SDS011;7481;53.750;10.570;2023-05-27T06:25:10;8.63;;;2.75;;
14778;SDS011;7481;53.750;10.570;2023-05-27T06:27:57;9.70;;;3.60;;
14778;SDS011;7481;53.750;10.570;2023-05-27T06:30:45;13.18;;;4.43;;
14778;SDS011;7481;53.750;10.570;2023-05-27T06:33:33;9.50;;;3.70;;
14778;SDS011;7481;53.750;10.570;2023-05-27T06:36:21;12.75;;;3.65;;
14778;SDS011;7481;53.750;10.570;2023-05-27T06:39:08;9.60;;;3.35;;
14778;SDS011;7481;53.750;10.570;2023-05-27T06:41:55;12.35;;;3.67;;
14778;SDS011;7481;53.750;10.570;2023-05-27T06:44:43;7.63;;;2.90;;
14778;SDS011;7481;53.750;10.570;2023-05-27T06:47:30;10.60;;;3.78;;
14778;SDS011;7481;53.750;10.570;2023-05-27T06:50:18;11.30;;;3.53;;
14778;SDS011;7481;53.750;10.570;2023-05-27T06:53:05;10.13;;;3.45;;
14778;SDS011;7481;53.750;10.570;2023-05-27T06:55:53;13.27;;;4.07;;
14778;SDS011;7481;53.750;10.570;2023-05-27T06:58:40;12.45;;;3.67;;
14778;SDS011;7481;53.750;10.570;2023-05-27T07:01:28;9.20;;;4.03;;
14778;SDS011;7481;53.750;10.570;2023-05-27T07:04:15;9.82;;;3.80;;
14778;SDS011;7481;53.750;10.570;2023-05-27T07:07:03;7.83;;;3.73;;
14778;SDS011;7481;53.750;10.570;2023-05-27T07:09:51;10.02;;;3.50;;
14778;SDS011;7481;53.750;10.570;2023-05-27T07:12:38;13.45;;;4.03;;
14778;SDS011;7481;53.750;10.570;2023-05-27T07:15:25;12.20;;;4.25;;
14778;SDS011;7481;53.750;10.570;2023-05-27T07:18:17;9.07;;;3.85;;
14778;SDS011;7481;53.750;10.570;2023-05-27T07:21:05;8.50;;;3.88;;
14778;SDS011;7481;53.750;10.570;2023-05-27T07:23:52;9.52;;;3.55;;
14778;SDS011;7481;53.750;10.570;2023-05-27T07:26:40;10.80;;;4.28;;
14778;SDS011;7481;53.750;10.570;2023-05-27T07:29:27;10.48;;;3.85;;
14778;SDS011;7481;53.750;10.570;2023-05-27T07:32:15;9.77;;;3.75;;
14778;SDS011;7481;53.750;10.570;2023-05-27T07:35:02;9.40;;;4.00;;
14778;SDS011;7481;53.750;10.570;2023-05-27T07:37:50;9.10;;;4.72;;
14778;SDS011;7481;53.750;10.570;2023-05-27T07:40:37;9.77;;;4.07;;
14778;SDS011;7481;53.750;10.570;2023-05-27T07:43:25;8.02;;;3.75;;
14778;SDS011;7481;53.750;10.570;2023-05-27T07:46:12;8.55;;;3.38;;
14778;SDS011;7481;53.750;10.570;2023-05-27T07:48:59;8.70;;;3.67;;
14778;SDS011;7481;53.750;10.570;2023-05-27T07:51:47;8.43;;;3.58;;
14778;SDS011;7481;53.750;10.570;2023-05-27T07:54:34;9.45;;;3.88;;
14778;SDS011;7481;53.750;10.570;2023-05-27T07:57:36;7.25;;;3.40;;
14778;SDS011;7481;53.750;10.570;2023-05-27T08:00:24;12.13;;;3.60;;
14778;SDS011;7481;53.750;10.570;2023-05-27T08:03:11;7.38;;;3.30;;
14778;SDS011;7481;53.750;10.570;2023-05-27T08:05:59;10.48;;;3.58;;
14778;SDS011;7481;53.750;10.570;2023-05-27T08:08:46;10.20;;;3.88;;
14778;SDS011;7481;53.750;10.570;2023-05-27T08:11:34;8.88;;;3.33;;
14778;SDS011;7481;53.750;10.570;2023-05-27T08:14:22;8.27;;;3.35;;
14778;SDS011;7481;53.750;10.570;2023-05-27T08:17:11;6.18;;;2.75;;
14778;SDS011;7481;53.750;10.570;2023-05-27T08:19:58;9.60;;;3.50;;
14778;SDS011;7481;53.750;10.570;2023-05-27T08:22:46;9.50;;;3.72;;
14778;SDS011;7481;53.750;10.570;2023-05-27T08:25:33;10.25;;;3.55;;
14778;SDS011;7481;53.750;10.570;2023-05-27T08:28:21;7.85;;;3.20;;
14778;SDS011;7481;53.750;10.570;2023-05-27T08:31:08;8.80;;;3.40;;
14778;SDS011;7481;53.750;10.570;2023-05-27T08:33:56;7.55;;;3.25;;
14778;SDS011;7481;53.750;10.570;2023-05-27T08:36:44;6.97;;;3.00;;
14778;SDS011;7481;53.750;10.570;2023-05-27T08:39:31;10.90;;;3.60;;
14778;SDS011;7481;53.750;10.570;2023-05-27T08:42:19;8.23;;;3.60;;
14778;SDS011;7481;53.750;10.570;2023-05-27T08:45:07;6.60;;;3.00;;
14778;SDS011;7481;53.750;10.570;2023-05-27T08:47:54;10.10;;;3.45;;
14778;SDS011;7481;53.750;10.570;2023-05-27T08:50:42;10.48;;;3.60;;
14778;SDS011;7481;53.750;10.570;2023-05-27T08:53:31;8.68;;;3.30;;
14778;SDS011;7481;53.750;10.570;2023-05-27T08:56:19;7.65;;;3.28;;
14778;SDS011;7481;53.750;10.570;2023-05-27T08:59:11;12.80;;;3.35;;
14778;SDS011;7481;53.750;10.570;2023-05-27T09:01:58;12.75;;;3.55;;
14778;SDS011;7481;53.750;10.570;2023-05-27T09:04:46;10.18;;;3.35;;
14778;SDS011;7481;53.750;10.570;2023-05-27T09:07:34;7.35;;;3.17;;
14778;SDS011;7481;53.750;10.570;2023-05-27T09:10:22;10.05;;;3.13;;
14778;SDS011;7481;53.750;10.570;2023-05-27T09:13:09;10.73;;;3.85;;
14778;SDS011;7481;53.750;10.570;2023-05-27T09:15:57;9.82;;;3.30;;
14778;SDS011;7481;53.750;10.570;2023-05-27T09:18:46;6.35;;;2.90;;
14778;SDS011;7481;53.750;10.570;2023-05-27T09:21:33;10.75;;;3.65;;
14778;SDS011;7481;53.750;10.570;2023-05-27T09:24:24;12.65;;;3.72;;
14778;SDS011;7481;53.750;10.570;2023-05-27T09:27:12;8.63;;;3.58;;
14778;SDS011;7481;53.750;10.570;2023-05-27T09:30:06;12.70;;;3.53;;
14778;SDS011;7481;53.750;10.570;2023-05-27T09:33:00;10.25;;;3.15;;
14778;SDS011;7481;53.750;10.570;2023-05-27T09:35:49;9.98;;;3.58;;
14778;SDS011;7481;53.750;10.570;2023-05-27T09:38:36;11.20;;;5.57;;
14778;SDS011;7481;53.750;10.570;2023-05-27T09:41:24;9.75;;;4.68;;
14778;SDS011;7481;53.750;10.570;2023-05-27T09:44:13;9.15;;;4.05;;
14778;SDS011;7481;53.750;10.570;2023-05-27T09:47:00;8.35;;;3.60;;
14778;SDS011;7481;53.750;10.570;2023-05-27T09:49:51;8.02;;;3.58;;
14778;SDS011;7481;53.750;10.570;2023-05-27T09:52:40;10.73;;;3.53;;
14778;SDS011;7481;53.750;10.570;2023-05-27T09:55:34;5.50;;;3.35;;
14778;SDS011;7481;53.750;10.570;2023-05-27T09:58:22;9.98;;;3.75;;
14778;SDS011;7481;53.750;10.570;2023-05-27T10:01:09;7.30;;;3.35;;
14778;SDS011;7481;53.750;10.570;2023-05-27T10:03:57;7.47;;;3.83;;
14778;SDS011;7481;53.750;10.570;2023-05-27T10:06:45;8.65;;;3.85;;
14778;SDS011;7481;53.750;10.570;2023-05-27T10:09:34;6.57;;;3.15;;
14778;SDS011;7481;53.750;10.570;2023-05-27T10:12:22;7.18;;;3.70;;
14778;SDS011;7481;53.750;10.570;2023-05-27T10:15:20;6.63;;;3.58;;
14778;SDS011;7481;53.750;10.570;2023-05-27T10:18:08;8.35;;;3.85;;
14778;SDS011;7481;53.750;10.570;2023-05-27T10:21:02;8.43;;;3.33;;
14778;SDS011;7481;53.750;10.570;2023-05-27T10:24:00;8.55;;;3.80;;
14778;SDS011;7481;53.750;10.570;2023-05-27T10:26:47;7.55;;;3.20;;
14778;SDS011;7481;53.750;10.570;2023-05-27T10:29:35;10.20;;;3.63;;
14778;SDS011;7481;53.750;10.570;2023-05-27T10:32:26;5.45;;;3.00;;
14778;SDS011;7481;53.750;10.570;2023-05-27T10:35:15;6.72;;;3.28;;
14778;SDS011;7481;53.750;10.570;2023-05-27T10:38:02;8.93;;;3.55;;
14778;SDS011;7481;53.750;10.570;2023-05-27T10:41:00;7.25;;;3.03;;
14778;SDS011;7481;53.750;10.570;2023-05-27T10:43:55;7.13;;;3.67;;
14778;SDS011;7481;53.750;10.570;2023-05-27T10:46:43;6.07;;;3.20;;
14778;SDS011;7481;53.750;10.570;2023-05-27T10:49:34;9.52;;;3.88;;
14778;SDS011;7481;53.750;10.570;2023-05-27T10:52:23;12.00;;;4.75;;
14778;SDS011;7481;53.750;10.570;2023-05-27T10:55:13;9.13;;;3.40;;
14778;SDS011;7481;53.750;10.570;2023-05-27T10:58:01;8.05;;;3.30;;
14778;SDS011;7481;53.750;10.570;2023-05-27T11:00:50;7.20;;;3.60;;
14778;SDS011;7481;53.750;10.570;2023-05-27T11:03:42;8.77;;;3.72;;
14778;SDS011;7481;53.750;10.570;2023-05-27T11:06:31;7.20;;;3.50;;
14778;SDS011;7481;53.750;10.570;2023-05-27T11:09:20;12.02;;;4.38;;
14778;SDS011;7481;53.750;10.570;2023-05-27T11:12:08;9.65;;;4.47;;
14778;SDS011;7481;53.750;10.570;2023-05-27T11:14:55;7.85;;;3.78;;
14778;SDS011;7481;53.750;10.570;2023-05-27T11:17:43;8.50;;;4.65;;
14778;SDS011;7481;53.750;10.570;2023-05-27T11:20:36;7.68;;;3.20;;
14778;SDS011;7481;53.750;10.570;2023-05-27T11:23:33;6.68;;;3.28;;
14778;SDS011;7481;53.750;10.570;2023-05-27T11:26:21;8.20;;;2.95;;
14778;SDS011;7481;53.750;10.570;2023-05-27T11:29:08;10.38;;;3.58;;
14778;SDS011;7481;53.750;10.570;2023-05-27T11:31:56;9.77;;;3.50;;
14778;SDS011;7481;53.750;10.570;2023-05-27T11:34:44;7.63;;;2.85;;
14778;SDS011;7481;53.750;10.570;2023-05-27T11:37:33;8.82;;;3.35;;
14778;SDS011;7481;53.750;10.570;2023-05-27T11:40:20;7.32;;;3.28;;
14778;SDS011;7481;53.750;10.570;2023-05-27T11:43:08;9.10;;;3.47;;
14778;SDS011;7481;53.750;10.570;2023-05-27T11:46:02;4.82;;;2.78;;
14778;SDS011;7481;53.750;10.570;2023-05-27T11:48:49;7.80;;;3.55;;
14778;SDS011;7481;53.750;10.570;2023-05-27T11:51:38;6.43;;;2.97;;
14778;SDS011;7481;53.750;10.570;2023-05-27T11:54:27;6.65;;;2.95;;
14778;SDS011;7481;53.750;10.570;2023-05-27T11:57:15;6.50;;;3.33;;
14778;SDS011;7481;53.750;10.570;2023-05-27T12:00:02;7.35;;;3.10;;
14778;SDS011;7481;53.750;10.570;2023-05-27T12:02:54;6.75;;;3.10;;
14778;SDS011;7481;53.750;10.570;2023-05-27T12:05:41;7.80;;;3.20;;
14778;SDS011;7481;53.750;10.570;2023-05-27T12:08:29;5.22;;;2.63;;
14778;SDS011;7481;53.750;10.570;2023-05-27T12:11:16;6.82;;;3.17;;
14778;SDS011;7481;53.750;10.570;2023-05-27T12:14:04;7.35;;;3.20;;
14778;SDS011;7481;53.750;10.570;2023-05-27T12:16:52;9.15;;;3.17;;
14778;SDS011;7481;53.750;10.570;2023-05-27T12:19:39;10.23;;;3.35;;
14778;SDS011;7481;53.750;10.570;2023-05-27T12:22:27;7.53;;;2.80;;
14778;SDS011;7481;53.750;10.570;2023-05-27T12:25:14;8.70;;;3.00;;
14778;SDS011;7481;53.750;10.570;2023-05-27T12:28:01;6.05;;;3.15;;
14778;SDS011;7481;53.750;10.570;2023-05-27T12:30:49;7.55;;;3.13;;
14778;SDS011;7481;53.750;10.570;2023-05-27T12:33:36;7.45;;;3.05;;
14778;SDS011;7481;53.750;10.570;2023-05-27T12:36:24;6.97;;;3.30;;
14778;SDS011;7481;53.750;10.570;2023-05-27T12:39:11;8.30;;;3.00;;
14778;SDS011;7481;53.750;10.570;2023-05-27T12:41:59;8.45;;;3.42;;
14778;SDS011;7481;53.750;10.570;2023-05-27T12:44:49;6.93;;;2.88;;
14778;SDS011;7481;53.750;10.570;2023-05-27T12:47:37;5.60;;;2.75;;
14778;SDS011;7481;53.750;10.570;2023-05-27T12:50:25;8.15;;;2.95;;
14778;SDS011;7481;53.750;10.570;2023-05-27T12:53:13;7.95;;;3.20;;
14778;SDS011;7481;53.750;10.570;2023-05-27T12:56:01;6.80;;;2.65;;
14778;SDS011;7481;53.750;10.570;2023-05-27T12:58:48;7.25;;;3.10;;
14778;SDS011;7481;53.750;10.570;2023-05-27T13:01:35;10.20;;;3.25;;
14778;SDS011;7481;53.750;10.570;2023-05-27T13:04:23;7.57;;;3.30;;
14778;SDS011;7481;53.750;10.570;2023-05-27T13:07:11;7.63;;;3.30;;
14778;SDS011;7481;53.750;10.570;2023-05-27T13:10:02;7.70;;;3.13;;
14778;SDS011;7481;53.750;10.570;2023-05-27T13:12:50;6.57;;;3.45;;
14778;SDS011;7481;53.750;10.570;2023-05-27T13:15:38;7.85;;;3.55;;
14778;SDS011;7481;53.750;10.570;2023-05-27T13:18:25;8.88;;;3.22;;
14778;SDS011;7481;53.750;10.570;2023-05-27T13:21:13;6.60;;;3.15;;
14778;SDS011;7481;53.750;10.570;2023-05-27T13:24:00;5.40;;;2.80;;
14778;SDS011;7481;53.750;10.570;2023-05-27T13:26:48;6.57;;;2.90;;
14778;SDS011;7481;53.750;10.570;2023-05-27T13:29:35;5.90;;;2.88;;
14778;SDS011;7481;53.750;10.570;2023-05-27T13:32:23;6.28;;;3.30;;
14778;SDS011;7481;53.750;10.570;2023-05-27T13:35:11;11.00;;;3.65;;
14778;SDS011;7481;53.750;10.570;2023-05-27T13:37:59;5.38;;;2.80;;
14778;SDS011;7481;53.750;10.570;2023-05-27T13:40:47;4.30;;;2.55;;
14778;SDS011;7481;53.750;10.570;2023-05-27T13:43:34;7.75;;;3.00;;
14778;SDS011;7481;53.750;10.570;2023-05-27T13:46:22;7.55;;;3.45;;
14778;SDS011;7481;53.750;10.570;2023-05-27T13:49:09;6.90;;;3.22;;
14778;SDS011;7481;53.750;10.570;2023-05-27T13:51:57;10.00;;;5.57;;
14778;SDS011;7481;53.750;10.570;2023-05-27T13:54:45;6.45;;;3.08;;
14778;SDS011;7481;53.750;10.570;2023-05-27T13:57:32;6.50;;;2.60;;
14778;SDS011;7481;53.750;10.570;2023-05-27T14:00:20;7.85;;;3.17;;
14778;SDS011;7481;53.750;10.570;2023-05-27T14:03:08;10.68;;;3.60;;
14778;SDS011;7481;53.750;10.570;2023-05-27T14:05:56;6.63;;;3.17;;
14778;SDS011;7481;53.750;10.570;2023-05-27T14:08:43;8.18;;;4.28;;
14778;SDS011;7481;53.750;10.570;2023-05-27T14:11:31;67.43;;;21.10;;
14778;SDS011;7481;53.750;10.570;2023-05-27T14:14:19;22.67;;;8.40;;
14778;SDS011;7481;53.750;10.570;2023-05-27T14:17:06;13.77;;;5.85;;
14778;SDS011;7481;53.750;10.570;2023-05-27T14:19:56;22.17;;;7.63;;
14778;SDS011;7481;53.750;10.570;2023-05-27T14:22:43;8.85;;;4.38;;
14778;SDS011;7481;53.750;10.570;2023-05-27T14:25:31;7.30;;;3.17;;
14778;SDS011;7481;53.750;10.570;2023-05-27T14:28:18;7.82;;;2.92;;
14778;SDS011;7481;53.750;10.570;2023-05-27T14:31:06;7.65;;;2.90;;
14778;SDS011;7481;53.750;10.570;2023-05-27T14:33:54;19.77;;;4.22;;
14778;SDS011;7481;53.750;10.570;2023-05-27T14:36:41;4.07;;;2.60;;
14778;SDS011;7481;53.750;10.570;2023-05-27T14:39:29;6.13;;;2.67;;
14778;SDS011;7481;53.750;10.570;2023-05-27T14:42:16;8.32;;;3.63;;
14778;SDS011;7481;53.750;10.570;2023-05-27T14:45:04;5.57;;;2.47;;
14778;SDS011;7481;53.750;10.570;2023-05-27T14:47:52;11.40;;;3.92;;
14778;SDS011;7481;53.750;10.570;2023-05-27T14:50:41;6.43;;;2.78;;
14778;SDS011;7481;53.750;10.570;2023-05-27T14:53:28;9.02;;;3.45;;
14778;SDS011;7481;53.750;10.570;2023-05-27T14:56:16;7.78;;;3.25;;
14778;SDS011;7481;53.750;10.570;2023-05-27T14:59:04;5.97;;;2.97;;
14778;SDS011;7481;53.750;10.570;2023-05-27T15:01:51;16.92;;;6.38;;
14778;SDS011;7481;53.750;10.570;2023-05-27T15:04:39;10.63;;;3.60;;
14778;SDS011;7481;53.750;10.570;2023-05-27T15:07:26;4.63;;;2.70;;
14778;SDS011;7481;53.750;10.570;2023-05-27T15:10:14;10.18;;;3.97;;
14778;SDS011;7481;53.750;10.570;2023-05-27T15:13:01;9.23;;;3.95;;
14778;SDS011;7481;53.750;10.570;2023-05-27T15:15:48;9.75;;;3.30;;
14778;SDS011;7481;53.750;10.570;2023-05-27T15:18:37;6.25;;;2.67;;
14778;SDS011;7481;53.750;10.570;2023-05-27T15:21:27;7.28;;;3.25;;
14778;SDS011;7481;53.750;10.570;2023-05-27T15:24:15;7.95;;;3.15;;
14778;SDS011;7481;53.750;10.570;2023-05-27T15:27:02;6.35;;;3.00;;
14778;SDS011;7481;53.750;10.570;2023-05-27T15:29:50;5.68;;;3.00;;
14778;SDS011;7481;53.750;10.570;2023-05-27T15:32:37;4.82;;;2.45;;
14778;SDS011;7481;53.750;10.570;2023-05-27T15:35:25;6.00;;;2.80;;
14778;SDS011;7481;53.750;10.570;2023-05-27T15:38:14;5.25;;;2.60;;
14778;SDS011;7481;53.750;10.570;2023-05-27T15:41:01;6.65;;;3.38;;
14778;SDS011;7481;53.750;10.570;2023-05-27T15:43:49;4.97;;;2.53;;
14778;SDS011;7481;53.750;10.570;2023-05-27T15:46:36;7.47;;;3.25;;
14778;SDS011;7481;53.750;10.570;2023-05-27T15:49:23;7.88;;;4.03;;
14778;SDS011;7481;53.750;10.570;2023-05-27T15:52:11;4.57;;;3.05;;
14778;SDS011;7481;53.750;10.570;2023-05-27T15:54:59;7.53;;;3.00;;
14778;SDS011;7481;53.750;10.570;2023-05-27T15:57:47;5.13;;;3.03;;
14778;SDS011;7481;53.750;10.570;2023-05-27T16:00:35;5.95;;;2.90;;
14778;SDS011;7481;53.750;10.570;2023-05-27T16:03:22;6.70;;;2.88;;
14778;SDS011;7481;53.750;10.570;2023-05-27T16:06:10;5.25;;;2.72;;
14778;SDS011;7481;53.750;10.570;2023-05-27T16:08:57;3.95;;;2.38;;
14778;SDS011;7481;53.750;10.570;2023-05-27T16:11:45;5.68;;;2.80;;
14778;SDS011;7481;53.750;10.570;2023-05-27T16:14:32;6.18;;;3.70;;
14778;SDS011;7481;53.750;10.570;2023-05-27T16:17:20;7.88;;;3.40;;
14778;SDS011;7481;53.750;10.570;2023-05-27T16:20:09;5.70;;;2.67;;
14778;SDS011;7481;53.750;10.570;2023-05-27T16:22:56;7.90;;;2.95;;
14778;SDS011;7481;53.750;10.570;2023-05-27T16:25:45;4.60;;;2.88;;
14778;SDS011;7481;53.750;10.570;2023-05-27T16:28:32;8.50;;;3.00;;
14778;SDS011;7481;53.750;10.570;2023-05-27T16:31:21;4.53;;;2.83;;
14778;SDS011;7481;53.750;10.570;2023-05-27T16:34:08;6.55;;;2.88;;
14778;SDS011;7481;53.750;10.570;2023-05-27T16:36:56;7.70;;;3.17;;
14778;SDS011;7481;53.750;10.570;2023-05-27T16:39:44;6.88;;;3.03;;
14778;SDS011;7481;53.750;10.570;2023-05-27T16:42:32;6.68;;;2.85;;
14778;SDS011;7481;53.750;10.570;2023-05-27T16:45:21;8.23;;;3.20;;
14778;SDS011;7481;53.750;10.570;2023-05-27T16:48:09;6.55;;;2.50;;